createdAt,value
2023-10-01T00:00:44.417Z,13.26
2023-10-01T00:05:49.936Z,13.32
2023-10-01T00:10:52.854Z,13.31
2023-10-01T00:15:56.302Z,13.38
2023-10-01T00:21:00.529Z,13.40
2023-10-01T00:26:03.410Z,13.38
2023-10-01T00:31:06.601Z,13.33
2023-10-01T00:36:10.784Z,13.38
2023-10-01T00:41:13.683Z,13.40
2023-10-01T00:46:16.585Z,13.39
2023-10-01T00:51:21.496Z,13.31
2023-10-01T00:56:26.531Z,13.32
2023-10-01T01:01:29.587Z,13.37
2023-10-01T01:06:38.014Z,13.36
2023-10-01T01:11:42.093Z,13.39
2023-10-01T01:16:46.508Z,13.38
2023-10-01T01:21:51.756Z,13.41
2023-10-01T01:27:01.527Z,13.44
2023-10-01T01:32:14.760Z,13.37
2023-10-01T01:37:31.691Z,13.44
2023-10-01T01:42:35.858Z,13.48
2023-10-01T01:47:39.393Z,13.48
2023-10-01T01:52:43.745Z,13.44
2023-10-01T01:58:03.373Z,13.46
2023-10-01T02:03:13.673Z,13.44
2023-10-01T02:08:25.726Z,13.48
2023-10-01T02:13:31.016Z,13.46
2023-10-01T02:18:33.906Z,13.50
2023-10-01T02:23:37.542Z,13.55
2023-10-01T02:28:41.743Z,13.53
2023-10-01T02:33:56.913Z,13.46
2023-10-01T02:38:59.986Z,13.53
2023-10-01T02:44:04.396Z,13.52
2023-10-01T02:49:14.198Z,13.53
2023-10-01T02:54:19.848Z,13.53
2023-10-01T02:59:24.218Z,13.53
2023-10-01T03:04:28.709Z,13.55
2023-10-01T03:09:35.720Z,13.54
2023-10-01T03:14:44.485Z,13.59
2023-10-01T03:19:53.433Z,13.57
2023-10-01T03:24:59.449Z,13.53
2023-10-01T03:30:19.803Z,13.55
2023-10-01T03:35:22.867Z,13.60
2023-10-01T03:40:28.943Z,13.57
2023-10-01T03:45:56.039Z,13.62
2023-10-01T03:50:58.953Z,13.61
2023-10-01T03:56:02.061Z,13.62
2023-10-01T04:01:26.875Z,13.61
2023-10-01T04:06:31.291Z,13.67
2023-10-01T04:11:52.843Z,13.63
2023-10-01T04:16:57.655Z,13.64
2023-10-01T04:22:00.976Z,13.66
2023-10-01T04:27:19.537Z,13.63
2023-10-01T04:32:28.332Z,13.65
2023-10-01T04:37:42.068Z,13.65
2023-10-01T04:42:44.840Z,13.65
2023-10-01T04:47:49.993Z,13.63
2023-10-01T04:52:54.627Z,13.65
2023-10-01T04:57:58.154Z,13.63
2023-10-01T05:03:04.301Z,13.66
2023-10-01T05:08:08.146Z,13.66
2023-10-01T05:13:10.941Z,13.67
2023-10-01T05:18:17.044Z,13.68
2023-10-01T05:23:30.956Z,13.65
2023-10-01T05:28:35.789Z,13.64
2023-10-01T05:33:40.261Z,13.59
2023-10-01T05:38:44.474Z,13.62
2023-10-01T05:43:51.586Z,13.64
2023-10-01T05:48:57.062Z,13.67
2023-10-01T05:54:00.678Z,13.71
2023-10-01T05:59:05.035Z,13.70
2023-10-01T06:04:14.001Z,13.72
2023-10-01T06:09:17.107Z,13.75
2023-10-01T06:14:37.305Z,13.77
2023-10-01T06:19:42.552Z,13.81
2023-10-01T06:24:47.533Z,13.82
2023-10-01T06:29:53.216Z,13.76
2023-10-01T06:34:58.912Z,13.83
2023-10-01T06:40:02.063Z,13.92
2023-10-01T06:45:08.143Z,13.99
2023-10-01T06:50:15.980Z,14.09
2023-10-01T06:55:29.717Z,14.14
2023-10-01T07:00:35.614Z,14.30
2023-10-01T07:05:40.814Z,14.37
2023-10-01T07:10:43.681Z,14.53
2023-10-01T07:15:48.034Z,14.59
2023-10-01T07:20:52.836Z,14.57
2023-10-01T07:26:01.597Z,14.66
2023-10-01T07:31:07.668Z,14.69
2023-10-01T07:36:12.712Z,14.85
2023-10-01T07:41:17.353Z,14.91
2023-10-01T07:46:20.841Z,15.07
2023-10-01T07:51:27.461Z,15.15
2023-10-01T07:56:30.537Z,15.29
2023-10-01T08:01:43.925Z,15.46
2023-10-01T08:06:50.936Z,15.59
2023-10-01T08:12:07.451Z,15.63
2023-10-01T08:17:10.589Z,15.83
2023-10-01T08:22:16.889Z,16.15
2023-10-01T08:27:33.110Z,16.33
2023-10-01T08:32:39.626Z,16.62
2023-10-01T08:37:50.560Z,16.89
2023-10-01T08:42:54.168Z,16.94
2023-10-01T08:48:01.138Z,16.80
2023-10-01T08:53:12.190Z,17.12
2023-10-01T08:58:16.596Z,17.41
2023-10-01T09:03:29.988Z,17.48
2023-10-01T09:08:43.911Z,17.47
2023-10-01T09:13:48.294Z,17.56
2023-10-01T09:19:04.664Z,17.83
2023-10-01T09:24:24.966Z,18.06
2023-10-01T09:29:28.592Z,18.14
2023-10-01T09:34:36.075Z,18.03
2023-10-01T09:39:43.477Z,18.24
2023-10-01T09:44:48.097Z,18.33
2023-10-01T09:49:53.587Z,18.61
2023-10-01T09:55:04.803Z,18.70
2023-10-01T10:00:19.778Z,18.74
2023-10-01T10:05:30.035Z,18.59
2023-10-01T10:10:35.445Z,18.66
2023-10-01T10:15:57.946Z,18.53
2023-10-01T10:21:01.671Z,18.80
2023-10-01T10:26:16.018Z,18.83
2023-10-01T10:31:32.488Z,19.14
2023-10-01T10:36:36.960Z,19.19
2023-10-01T10:42:29.269Z,19.24
2023-10-01T10:47:32.554Z,19.44
2023-10-01T10:52:35.407Z,19.73
2023-10-01T10:57:49.359Z,19.67
2023-10-01T11:02:58.037Z,19.73
2023-10-01T11:08:04.001Z,20.25
2023-10-01T11:13:14.551Z,20.25
2023-10-01T11:18:17.558Z,20.38
2023-10-01T11:23:21.001Z,20.39
2023-10-01T11:28:31.181Z,20.51
2023-10-01T11:33:34.093Z,20.54
2023-10-01T11:38:38.030Z,20.78
2023-10-01T11:43:43.912Z,20.68
2023-10-01T11:48:59.425Z,20.66
2023-10-01T11:54:14.147Z,20.98
2023-10-01T11:59:21.872Z,20.82
2023-10-01T12:04:39.821Z,20.99
2023-10-01T12:09:44.196Z,21.23
2023-10-01T12:14:55.134Z,21.54
2023-10-01T12:20:00.413Z,21.45
2023-10-01T12:25:04.142Z,21.52
2023-10-01T12:30:12.261Z,21.50
2023-10-01T12:35:28.830Z,21.41
2023-10-01T12:40:35.947Z,21.50
2023-10-01T12:45:45.153Z,21.47
2023-10-01T12:51:01.104Z,21.73
2023-10-01T12:56:05.172Z,21.85
2023-10-01T13:01:25.408Z,21.78
2023-10-01T13:06:29.222Z,21.85
2023-10-01T13:11:55.024Z,21.87
2023-10-01T13:17:02.163Z,21.84
2023-10-01T13:22:06.362Z,21.80
2023-10-01T13:27:12.349Z,21.84
2023-10-01T13:32:17.679Z,21.78
2023-10-01T13:37:43.789Z,21.79
2023-10-01T13:43:04.307Z,21.92
2023-10-01T13:48:26.512Z,22.09
2023-10-01T13:53:46.579Z,21.88
2023-10-01T13:59:07.049Z,21.90
2023-10-01T14:04:29.694Z,21.75
2023-10-01T14:09:52.440Z,21.66
2023-10-01T14:14:55.295Z,21.76
2023-10-01T14:19:59.742Z,21.68
2023-10-01T14:25:21.804Z,21.64
2023-10-01T14:30:28.677Z,21.73
2023-10-01T14:35:39.564Z,21.64
2023-10-01T14:40:45.308Z,21.61
2023-10-01T14:45:50.090Z,21.60
2023-10-01T14:50:58.112Z,21.66
2023-10-01T14:56:05.962Z,21.65
2023-10-01T15:01:10.812Z,21.58
2023-10-01T15:06:19.373Z,21.53
2023-10-01T15:11:24.646Z,21.54
2023-10-01T15:16:45.506Z,21.48
2023-10-01T15:21:56.509Z,21.36
2023-10-01T15:27:00.238Z,21.31
2023-10-01T15:32:16.130Z,21.26
2023-10-01T15:37:20.468Z,21.26
2023-10-01T15:42:24.529Z,21.13
2023-10-01T15:47:33.606Z,21.11
2023-10-01T15:52:47.120Z,21.10
2023-10-01T15:57:56.629Z,20.97
2023-10-01T16:03:11.921Z,20.94
2023-10-01T16:08:21.245Z,20.89
2023-10-01T16:13:28.943Z,20.77
2023-10-01T16:18:33.925Z,20.74
2023-10-01T16:23:38.581Z,20.63
2023-10-01T16:28:42.923Z,20.54
2023-10-01T16:33:47.335Z,20.49
2023-10-01T16:38:54.432Z,20.40
2023-10-01T16:43:58.278Z,20.39
2023-10-01T16:49:02.338Z,20.24
2023-10-01T16:54:14.729Z,20.18
2023-10-01T16:59:22.746Z,20.16
2023-10-01T17:04:28.462Z,20.00
2023-10-01T17:09:35.488Z,19.87
2023-10-01T17:14:40.365Z,19.86
2023-10-01T17:19:44.993Z,19.76
2023-10-01T17:24:52.695Z,19.65
2023-10-01T17:29:57.981Z,19.55
2023-10-01T17:35:02.349Z,19.44
2023-10-01T17:40:18.724Z,19.41
2023-10-01T17:45:21.827Z,19.30
2023-10-01T17:50:24.756Z,19.20
2023-10-01T17:55:29.241Z,19.09
2023-10-01T18:00:40.783Z,18.99
2023-10-01T18:05:57.564Z,18.96
2023-10-01T18:11:10.932Z,18.91
2023-10-01T18:16:24.589Z,18.90
2023-10-01T18:21:27.406Z,18.94
2023-10-01T18:26:31.846Z,18.89
2023-10-01T18:31:34.784Z,18.85
2023-10-01T18:36:41.107Z,18.83
2023-10-01T18:41:45.836Z,18.68
2023-10-01T18:46:48.883Z,18.67
2023-10-01T18:51:52.840Z,18.54
2023-10-01T18:56:59.356Z,18.40
2023-10-01T19:02:02.657Z,18.37
2023-10-01T19:07:05.810Z,18.29
2023-10-01T19:12:10.067Z,18.18
2023-10-01T19:17:12.938Z,18.12
2023-10-01T19:22:15.896Z,18.15
2023-10-01T19:27:20.205Z,18.09
2023-10-01T19:32:23.519Z,17.93
2023-10-01T19:37:28.578Z,17.83
2023-10-01T19:42:34.741Z,17.82
2023-10-01T19:47:41.636Z,17.75
2023-10-01T19:52:45.529Z,17.66
2023-10-01T19:57:53.611Z,17.57
2023-10-01T20:03:11.957Z,17.51
2023-10-01T20:08:15.775Z,17.48
2023-10-01T20:13:21.050Z,17.46
2023-10-01T20:18:24.496Z,17.44
2023-10-01T20:23:27.815Z,17.42
2023-10-01T20:28:33.344Z,17.38
2023-10-01T20:33:36.381Z,17.34
2023-10-01T20:38:41.956Z,17.35
2023-10-01T20:43:49.836Z,17.25
2023-10-01T20:49:00.286Z,17.22
2023-10-01T20:54:05.350Z,17.12
2023-10-01T20:59:15.028Z,17.07
2023-10-01T21:04:25.639Z,17.06
2023-10-01T21:09:31.171Z,17.00
2023-10-01T21:14:38.140Z,16.99
2023-10-01T21:19:43.612Z,16.92
2023-10-01T21:24:47.196Z,16.89
2023-10-01T21:29:54.147Z,16.85
2023-10-01T21:34:58.846Z,16.85
2023-10-01T21:40:01.719Z,16.77
2023-10-01T21:45:31.678Z,16.61
2023-10-01T21:50:37.699Z,16.63
2023-10-01T21:55:40.694Z,16.59
2023-10-01T22:01:01.383Z,16.59
2023-10-01T22:06:07.079Z,16.54
2023-10-01T22:11:12.392Z,16.45
2023-10-01T22:16:18.188Z,16.38
2023-10-01T22:21:22.878Z,16.34
2023-10-01T22:26:32.533Z,16.33
2023-10-01T22:31:39.652Z,16.33
2023-10-01T22:36:48.810Z,16.32
2023-10-01T22:41:51.713Z,16.30
2023-10-01T22:47:06.414Z,16.25
2023-10-01T22:52:09.507Z,16.27
2023-10-01T22:57:13.811Z,16.22
2023-10-01T23:02:23.090Z,16.19
2023-10-01T23:07:32.725Z,16.21
2023-10-01T23:12:37.162Z,16.16
2023-10-01T23:18:00.425Z,16.09
2023-10-01T23:23:03.742Z,16.14
2023-10-01T23:28:15.222Z,16.07
2023-10-01T23:33:21.230Z,16.01
2023-10-01T23:38:30.565Z,15.85
2023-10-01T23:43:47.284Z,15.86
2023-10-01T23:48:58.183Z,15.88
2023-10-01T23:54:03.958Z,15.87
2023-10-01T23:59:20.956Z,15.86
